Time;durP1;ratioP1;P1;durP2;ratioP2;P2;SDS_P1;SDS_P2;PMS_P1;PMS_P2;Temp;Humidity;BMP_temperature;BMP_pressure;BME280_temperature;BME280_humidity;BME280_pressure;Samples;Min_cycle;Max_cycle;Signal;HPM_P1;HPM_P2
2024/03/19 00:02:09;;;;;;;71.70;15.10;;;;;;;;;;5101957;28;20443;-84
2024/03/19 00:04:36;;;;;;;70.77;15.70;;;;;;;;;;5100007;28;20487;-82
2024/03/19 00:07:05;;;;;;;68.50;14.90;;;;;;;;;;5100404;28;20443;-82
2024/03/19 00:09:32;;;;;;;71.37;15.70;;;;;;;;;;5100872;28;20447;-81
2024/03/19 00:11:59;;;;;;;69.90;15.20;;;;;;;;;;5100117;28;20964;-83
2024/03/19 00:14:26;;;;;;;73.37;15.20;;;;;;;;;;5109009;28;20857;-83
2024/03/19 00:16:54;;;;;;;72.27;15.60;;;;;;;;;;5091399;28;20474;-81
2024/03/19 00:19:22;;;;;;;70.33;14.27;;;;;;;;;;5099146;28;20590;-83
2024/03/19 00:21:50;;;;;;;70.97;15.00;;;;;;;;;;5096783;28;20473;-83
2024/03/19 00:24:19;;;;;;;72.33;16.77;;;;;;;;;;5106550;28;20444;-84
2024/03/19 00:26:46;;;;;;;68.53;14.30;;;;;;;;;;5106930;28;20491;-83
2024/03/19 00:29:13;;;;;;;72.03;16.20;;;;;;;;;;5099567;28;20514;-84
2024/03/19 00:31:41;;;;;;;70.50;14.67;;;;;;;;;;5098399;28;20447;-83
2024/03/19 00:34:09;;;;;;;71.63;15.07;;;;;;;;;;5090478;28;20424;-83
2024/03/19 00:36:36;;;;;;;72.37;15.20;;;;;;;;;;5107227;28;20557;-83
2024/03/19 00:39:10;;;;;;;67.40;14.00;;;;;;;;;;5111781;28;20446;-82
2024/03/19 00:41:38;;;;;;;72.10;15.80;;;;;;;;;;5101329;28;20455;-84
2024/03/19 00:44:06;;;;;;;74.77;17.10;;;;;;;;;;5094927;28;20425;-84
2024/03/19 00:46:34;;;;;;;71.40;15.93;;;;;;;;;;5101199;28;20510;-84
2024/03/19 00:52:11;;;;;;;69.90;14.53;;;;;;;;;;5100222;28;20820;-83
2024/03/19 00:54:37;;;;;;;73.33;15.27;;;;;;;;;;5085625;28;20443;-82
2024/03/19 00:57:06;;;;;;;73.23;16.80;;;;;;;;;;5086882;28;20455;-83
2024/03/19 00:59:33;;;;;;;70.30;15.13;;;;;;;;;;5097075;28;20443;-83
2024/03/19 01:02:01;;;;;;;73.63;16.07;;;;;;;;;;5087619;28;20530;-82
2024/03/19 01:04:28;;;;;;;69.80;14.90;;;;;;;;;;5092325;28;20858;-83
2024/03/19 01:06:56;;;;;;;71.07;14.57;;;;;;;;;;5098224;28;20529;-84
2024/03/19 01:09:22;;;;;;;71.50;14.07;;;;;;;;;;5090484;28;20446;-84
2024/03/19 01:11:49;;;;;;;70.30;14.30;;;;;;;;;;5090067;28;20454;-82
2024/03/19 01:14:18;;;;;;;76.03;15.80;;;;;;;;;;5086249;28;20509;-83
2024/03/19 01:16:45;;;;;;;76.23;16.27;;;;;;;;;;5096211;28;20451;-84
2024/03/19 01:19:12;;;;;;;96.73;18.87;;;;;;;;;;5091129;28;20492;-85
2024/03/19 01:21:40;;;;;;;100.40;18.17;;;;;;;;;;5099332;28;20465;-83
2024/03/19 01:24:07;;;;;;;86.87;16.30;;;;;;;;;;5099641;28;20450;-82
2024/03/19 01:26:34;;;;;;;108.17;19.50;;;;;;;;;;5091241;28;20477;-82
2024/03/19 01:29:02;;;;;;;117.83;17.37;;;;;;;;;;5080084;28;20517;-83
2024/03/19 01:31:31;;;;;;;85.40;17.50;;;;;;;;;;5093920;28;20477;-84
2024/03/19 01:33:58;;;;;;;97.67;15.87;;;;;;;;;;5090330;28;20450;-83
2024/03/19 01:36:25;;;;;;;103.77;18.50;;;;;;;;;;5092432;28;20462;-82
2024/03/19 01:38:53;;;;;;;80.70;14.07;;;;;;;;;;5093320;28;20439;-83
2024/03/19 01:41:20;;;;;;;81.60;15.37;;;;;;;;;;5092610;28;20501;-85
2024/03/19 01:43:47;;;;;;;90.73;17.13;;;;;;;;;;5094531;28;20454;-84
2024/03/19 01:46:15;;;;;;;85.90;14.17;;;;;;;;;;5096675;28;20494;-84
2024/03/19 01:48:44;;;;;;;100.50;15.83;;;;;;;;;;5097044;28;20482;-84
2024/03/19 01:51:12;;;;;;;84.57;14.60;;;;;;;;;;5094145;28;20435;-84
2024/03/19 01:53:39;;;;;;;83.27;14.70;;;;;;;;;;5094272;28;20447;-85
2024/03/19 01:56:07;;;;;;;125.83;18.60;;;;;;;;;;5105029;28;20483;-83
2024/03/19 01:58:35;;;;;;;72.37;14.07;;;;;;;;;;5105746;28;20459;-84
2024/03/19 02:01:03;;;;;;;116.17;17.90;;;;;;;;;;5106031;28;20443;-84
2024/03/19 02:03:31;;;;;;;95.03;15.93;;;;;;;;;;5106127;28;20442;-84
2024/03/19 02:05:59;;;;;;;121.53;17.70;;;;;;;;;;5096378;28;20484;-83
2024/03/19 02:08:27;;;;;;;78.20;13.10;;;;;;;;;;5099816;28;20457;-83
2024/03/19 02:10:54;;;;;;;70.53;14.07;;;;;;;;;;5086919;28;20955;-85
2024/03/19 02:13:21;;;;;;;78.63;14.90;;;;;;;;;;5092258;28;20490;-85
2024/03/19 02:15:50;;;;;;;68.43;12.90;;;;;;;;;;5093629;28;20490;-82
2024/03/19 02:18:17;;;;;;;71.17;13.70;;;;;;;;;;5101612;28;20440;-85
2024/03/19 02:20:44;;;;;;;68.20;13.10;;;;;;;;;;5101418;28;20459;-83
2024/03/19 02:23:13;;;;;;;68.43;13.90;;;;;;;;;;5092416;28;20433;-84
2024/03/19 02:25:40;;;;;;;65.27;10.87;;;;;;;;;;5097278;28;20480;-83
2024/03/19 02:28:08;;;;;;;66.80;13.10;;;;;;;;;;5095747;28;20452;-84
2024/03/19 02:30:35;;;;;;;70.10;12.20;;;;;;;;;;5101887;28;21027;-83
2024/03/19 02:33:02;;;;;;;64.93;11.00;;;;;;;;;;5098318;28;20428;-84
2024/03/19 02:35:29;;;;;;;64.90;12.57;;;;;;;;;;5098895;28;20950;-83
2024/03/19 02:37:57;;;;;;;73.47;13.07;;;;;;;;;;5105261;28;20447;-84
2024/03/19 02:40:26;;;;;;;83.77;13.50;;;;;;;;;;5094383;28;20747;-84
2024/03/19 02:42:53;;;;;;;85.80;12.07;;;;;;;;;;5102633;28;20494;-84
2024/03/19 02:45:22;;;;;;;103.53;13.10;;;;;;;;;;5096758;28;20482;-84
2024/03/19 02:47:49;;;;;;;97.00;13.40;;;;;;;;;;5105186;28;20863;-83
2024/03/19 02:50:16;;;;;;;88.87;13.23;;;;;;;;;;5101919;28;20439;-84
2024/03/19 02:52:43;;;;;;;98.73;13.10;;;;;;;;;;5108960;28;20444;-83
2024/03/19 02:55:11;;;;;;;77.97;11.97;;;;;;;;;;5100516;28;20454;-82
2024/03/19 02:57:40;;;;;;;80.77;11.87;;;;;;;;;;5102723;28;20856;-84
2024/03/19 03:00:09;;;;;;;82.93;13.07;;;;;;;;;;5097458;28;20470;-82
2024/03/19 03:02:39;;;;;;;76.13;12.40;;;;;;;;;;5103646;28;20447;-84
2024/03/19 03:05:06;;;;;;;85.60;14.40;;;;;;;;;;5107564;28;20475;-82
2024/03/19 03:07:33;;;;;;;95.10;11.80;;;;;;;;;;5097313;28;20440;-83
2024/03/19 03:10:03;;;;;;;86.40;14.00;;;;;;;;;;5087673;28;20443;-83
2024/03/19 03:12:30;;;;;;;83.40;12.97;;;;;;;;;;5101823;28;20447;-83
2024/03/19 03:14:59;;;;;;;118.17;14.77;;;;;;;;;;5101844;28;20466;-83
2024/03/19 03:17:27;;;;;;;74.87;12.20;;;;;;;;;;5096545;28;20546;-84
2024/03/19 03:19:55;;;;;;;95.00;13.07;;;;;;;;;;5097889;28;20462;-84
2024/03/19 03:22:22;;;;;;;131.43;15.20;;;;;;;;;;5097643;28;20486;-83
2024/03/19 03:24:50;;;;;;;88.90;14.07;;;;;;;;;;5107364;28;20493;-84
2024/03/19 03:27:17;;;;;;;66.37;13.10;;;;;;;;;;5097323;28;20541;-84
2024/03/19 03:29:46;;;;;;;73.00;13.30;;;;;;;;;;5099128;28;20807;-84
2024/03/19 03:32:15;;;;;;;70.80;12.97;;;;;;;;;;5101416;28;20451;-84
2024/03/19 03:34:43;;;;;;;70.53;13.23;;;;;;;;;;5101863;28;20475;-84
2024/03/19 03:37:10;;;;;;;70.60;12.37;;;;;;;;;;5101090;28;20504;-84
2024/03/19 03:39:37;;;;;;;87.40;15.00;;;;;;;;;;5094810;28;20505;-85
2024/03/19 03:42:05;;;;;;;67.57;13.20;;;;;;;;;;5089245;28;20505;-83
2024/03/19 03:44:32;;;;;;;83.90;13.23;;;;;;;;;;5095175;28;20534;-84
2024/03/19 03:46:59;;;;;;;74.27;12.43;;;;;;;;;;5096383;28;20468;-85
2024/03/19 03:49:28;;;;;;;75.60;14.17;;;;;;;;;;5101181;28;20468;-84
2024/03/19 03:51:55;;;;;;;81.90;13.40;;;;;;;;;;5099909;28;20435;-84
2024/03/19 03:54:22;;;;;;;90.27;15.27;;;;;;;;;;5098893;28;20439;-84
2024/03/19 03:56:51;;;;;;;93.73;15.97;;;;;;;;;;5091029;28;20464;-84
2024/03/19 03:59:18;;;;;;;86.70;13.47;;;;;;;;;;5098447;28;20489;-84
2024/03/19 04:01:45;;;;;;;81.30;14.97;;;;;;;;;;5108147;28;20431;-84
2024/03/19 04:04:12;;;;;;;70.33;13.03;;;;;;;;;;5091487;28;20461;-84
2024/03/19 04:06:41;;;;;;;88.20;15.40;;;;;;;;;;5098281;28;20545;-84
2024/03/19 04:09:08;;;;;;;88.43;15.60;;;;;;;;;;5106848;28;20934;-84
2024/03/19 04:11:35;;;;;;;139.17;18.77;;;;;;;;;;5087527;28;20928;-85
2024/03/19 04:14:03;;;;;;;85.67;16.77;;;;;;;;;;5098471;28;20455;-84
2024/03/19 04:16:30;;;;;;;95.67;16.07;;;;;;;;;;5100526;28;20463;-85
2024/03/19 04:18:57;;;;;;;104.10;16.90;;;;;;;;;;5091396;28;20436;-84
2024/03/19 04:21:25;;;;;;;86.47;15.07;;;;;;;;;;5107971;28;20496;-83
2024/03/19 04:23:53;;;;;;;83.03;14.47;;;;;;;;;;5101343;28;20538;-84
2024/03/19 04:26:21;;;;;;;91.47;19.13;;;;;;;;;;5088726;28;20496;-84
2024/03/19 04:28:48;;;;;;;73.90;14.80;;;;;;;;;;5096780;28;20505;-84
2024/03/19 04:31:15;;;;;;;69.40;13.90;;;;;;;;;;5096165;28;20940;-84
2024/03/19 04:33:43;;;;;;;73.00;14.40;;;;;;;;;;5101556;28;20456;-85
2024/03/19 04:36:10;;;;;;;70.17;14.80;;;;;;;;;;5091348;28;20472;-85
2024/03/19 04:38:38;;;;;;;86.30;15.90;;;;;;;;;;5096368;28;20432;-85
2024/03/19 04:41:06;;;;;;;73.60;14.47;;;;;;;;;;5103254;28;20500;-83
2024/03/19 04:43:34;;;;;;;122.07;17.83;;;;;;;;;;5099105;28;20518;-84
2024/03/19 04:46:02;;;;;;;75.80;13.57;;;;;;;;;;5097494;28;20517;-83
2024/03/19 04:48:29;;;;;;;76.57;15.03;;;;;;;;;;5091949;28;20451;-82
2024/03/19 04:50:57;;;;;;;75.07;13.80;;;;;;;;;;5097130;28;20489;-83
2024/03/19 04:53:24;;;;;;;106.70;17.70;;;;;;;;;;5097844;28;20446;-84
2024/03/19 04:55:51;;;;;;;79.77;14.27;;;;;;;;;;5101865;28;20463;-83
2024/03/19 04:58:20;;;;;;;72.63;15.20;;;;;;;;;;5088456;28;20465;-84
2024/03/19 05:00:47;;;;;;;79.13;13.93;;;;;;;;;;5101386;28;20610;-83
2024/03/19 05:03:14;;;;;;;71.73;14.13;;;;;;;;;;5106934;28;20445;-84
2024/03/19 05:05:42;;;;;;;72.47;13.87;;;;;;;;;;5111675;28;20508;-84
2024/03/19 05:08:09;;;;;;;77.83;13.40;;;;;;;;;;5089497;28;20456;-83
2024/03/19 05:10:37;;;;;;;83.10;14.23;;;;;;;;;;5103053;28;20487;-84
2024/03/19 05:13:04;;;;;;;70.67;13.57;;;;;;;;;;5095985;28;20494;-83
2024/03/19 05:15:33;;;;;;;69.43;12.73;;;;;;;;;;5100110;28;20544;-83
2024/03/19 05:18:00;;;;;;;69.10;13.20;;;;;;;;;;5093896;28;20454;-84
2024/03/19 05:20:28;;;;;;;74.67;13.00;;;;;;;;;;5110838;28;20466;-83
2024/03/19 05:22:55;;;;;;;77.97;13.33;;;;;;;;;;5110955;28;20431;-84
2024/03/19 05:25:22;;;;;;;66.63;11.60;;;;;;;;;;5100717;28;20508;-82
2024/03/19 05:27:49;;;;;;;86.10;14.47;;;;;;;;;;5113406;28;20486;-82
2024/03/19 05:30:17;;;;;;;84.57;15.40;;;;;;;;;;5103948;28;20439;-81
2024/03/19 05:32:45;;;;;;;107.47;15.47;;;;;;;;;;5099227;28;20471;-82
2024/03/19 05:35:12;;;;;;;108.83;15.77;;;;;;;;;;5098259;28;20526;-83
2024/03/19 05:37:41;;;;;;;127.03;18.00;;;;;;;;;;5105675;28;20500;-82
2024/03/19 05:40:09;;;;;;;90.83;16.67;;;;;;;;;;5102904;28;20478;-83
2024/03/19 05:42:37;;;;;;;98.37;15.87;;;;;;;;;;5100359;28;20466;-82
2024/03/19 05:45:04;;;;;;;111.67;15.73;;;;;;;;;;5108009;28;20566;-82
2024/03/19 05:47:34;;;;;;;70.50;13.20;;;;;;;;;;5099930;28;20502;-84
2024/03/19 05:50:03;;;;;;;67.40;13.10;;;;;;;;;;5092846;28;20444;-82
2024/03/19 05:52:30;;;;;;;76.27;13.97;;;;;;;;;;5099962;28;20947;-83
2024/03/19 05:54:58;;;;;;;79.43;16.33;;;;;;;;;;5095618;28;20477;-83
2024/03/19 05:57:25;;;;;;;70.27;13.60;;;;;;;;;;5085603;28;20447;-84
2024/03/19 05:59:53;;;;;;;71.67;14.00;;;;;;;;;;5084074;28;20501;-83
2024/03/19 06:02:20;;;;;;;70.30;14.70;;;;;;;;;;5078735;28;20435;-83
2024/03/19 06:04:48;;;;;;;72.27;14.70;;;;;;;;;;5092990;28;20446;-83
2024/03/19 06:07:16;;;;;;;71.57;14.67;;;;;;;;;;5109539;28;20467;-84
2024/03/19 06:09:44;;;;;;;73.50;15.33;;;;;;;;;;5100682;28;20472;-84
2024/03/19 06:12:11;;;;;;;70.57;14.87;;;;;;;;;;5094101;28;20432;-85
2024/03/19 06:14:39;;;;;;;74.20;15.57;;;;;;;;;;5081615;28;20939;-85
2024/03/19 06:17:06;;;;;;;70.07;14.97;;;;;;;;;;5097627;28;20524;-86
2024/03/19 06:19:34;;;;;;;76.00;13.63;;;;;;;;;;5099755;28;20976;-85
2024/03/19 06:22:01;;;;;;;73.83;15.37;;;;;;;;;;5085404;28;20440;-85
2024/03/19 06:24:29;;;;;;;76.10;13.77;;;;;;;;;;5083308;28;20468;-86
2024/03/19 06:26:58;;;;;;;73.07;14.77;;;;;;;;;;5089643;28;20479;-85
2024/03/19 06:29:25;;;;;;;73.97;15.30;;;;;;;;;;5086489;28;20538;-84
2024/03/19 06:31:53;;;;;;;81.70;16.63;;;;;;;;;;5086759;28;20436;-84
2024/03/19 06:34:21;;;;;;;74.93;15.83;;;;;;;;;;5093592;28;20439;-86
2024/03/19 06:36:48;;;;;;;75.27;16.23;;;;;;;;;;5100485;28;20481;-84
2024/03/19 06:39:16;;;;;;;78.70;17.30;;;;;;;;;;5096467;28;20439;-84
2024/03/19 06:41:48;;;;;;;77.23;15.60;;;;;;;;;;5101413;28;20510;-82
2024/03/19 06:44:18;;;;;;;80.27;16.80;;;;;;;;;;5100425;28;20455;-84
2024/03/19 06:46:45;;;;;;;84.03;16.40;;;;;;;;;;5090138;28;20608;-83
2024/03/19 06:49:13;;;;;;;78.50;16.30;;;;;;;;;;5079996;28;20444;-85
2024/03/19 06:51:41;;;;;;;75.43;16.30;;;;;;;;;;5091969;28;20448;-85
2024/03/19 06:54:08;;;;;;;72.87;15.13;;;;;;;;;;5089191;28;20447;-85
2024/03/19 06:56:35;;;;;;;85.20;17.27;;;;;;;;;;5090550;28;20981;-84
2024/03/19 06:59:04;;;;;;;72.07;15.47;;;;;;;;;;5089484;28;20431;-84
2024/03/19 07:01:31;;;;;;;72.20;14.47;;;;;;;;;;5095012;28;20489;-86
2024/03/19 07:03:58;;;;;;;70.17;14.60;;;;;;;;;;5087864;28;20932;-86
2024/03/19 07:06:25;;;;;;;72.57;16.07;;;;;;;;;;5091845;28;20508;-85
2024/03/19 07:08:53;;;;;;;72.53;15.40;;;;;;;;;;5085556;28;20878;-85
2024/03/19 07:11:21;;;;;;;71.63;14.80;;;;;;;;;;5091221;28;20452;-85
2024/03/19 07:13:49;;;;;;;70.33;15.27;;;;;;;;;;5093965;28;20470;-86
2024/03/19 07:16:19;;;;;;;70.53;14.70;;;;;;;;;;5088282;28;20471;-87
2024/03/19 07:18:47;;;;;;;69.37;13.90;;;;;;;;;;5088523;28;20440;-85
2024/03/19 07:21:14;;;;;;;68.80;13.67;;;;;;;;;;5095682;28;20504;-84
2024/03/19 07:23:41;;;;;;;70.20;14.93;;;;;;;;;;5088076;28;20510;-86
2024/03/19 07:26:10;;;;;;;73.27;15.73;;;;;;;;;;5078744;28;20455;-83
2024/03/19 07:28:38;;;;;;;70.47;15.17;;;;;;;;;;5088354;28;21001;-85
2024/03/19 07:31:06;;;;;;;73.90;17.43;;;;;;;;;;5077993;28;20472;-85
2024/03/19 07:33:35;;;;;;;69.10;14.50;;;;;;;;;;5085841;28;20439;-84
2024/03/19 07:36:02;;;;;;;70.70;15.07;;;;;;;;;;5098043;28;20504;-85
2024/03/19 07:38:29;;;;;;;68.67;15.17;;;;;;;;;;5085432;28;20444;-85
2024/03/19 07:40:56;;;;;;;68.37;13.87;;;;;;;;;;5092099;28;20439;-84
2024/03/19 07:43:25;;;;;;;67.70;13.73;;;;;;;;;;5085714;28;20813;-85
2024/03/19 07:45:52;;;;;;;67.27;13.00;;;;;;;;;;5090670;28;20943;-85
2024/03/19 07:48:20;;;;;;;67.53;12.40;;;;;;;;;;5085472;28;21002;-84
2024/03/19 07:50:49;;;;;;;67.10;12.63;;;;;;;;;;5084399;28;20802;-85
2024/03/19 07:53:16;;;;;;;65.63;12.03;;;;;;;;;;5085195;28;20493;-84
2024/03/19 07:55:45;;;;;;;65.07;10.87;;;;;;;;;;5082114;28;20463;-85
2024/03/19 07:58:12;;;;;;;64.37;11.87;;;;;;;;;;5082873;28;20536;-86
2024/03/19 08:00:39;;;;;;;64.63;10.97;;;;;;;;;;5080055;28;20517;-84
2024/03/19 08:03:07;;;;;;;62.97;10.27;;;;;;;;;;5085476;28;20471;-85
2024/03/19 08:05:34;;;;;;;60.93;8.23;;;;;;;;;;5090945;28;20531;-85
2024/03/19 08:08:03;;;;;;;61.80;9.10;;;;;;;;;;5089886;28;20471;-84
2024/03/19 08:10:30;;;;;;;61.23;8.33;;;;;;;;;;5093266;28;20533;-85
2024/03/19 08:12:57;;;;;;;61.70;8.30;;;;;;;;;;5089243;28;20473;-85
2024/03/19 08:15:25;;;;;;;64.83;10.23;;;;;;;;;;5087513;28;20859;-85
2024/03/19 08:17:54;;;;;;;60.60;8.00;;;;;;;;;;5092731;28;20547;-84
2024/03/19 08:20:21;;;;;;;62.03;8.50;;;;;;;;;;5091163;28;20489;-84
2024/03/19 08:22:48;;;;;;;62.10;8.90;;;;;;;;;;5092492;28;20505;-86
2024/03/19 08:25:18;;;;;;;61.97;9.27;;;;;;;;;;5088755;28;20463;-85
2024/03/19 08:27:45;;;;;;;61.20;8.17;;;;;;;;;;5086498;28;20498;-85
2024/03/19 08:30:13;;;;;;;61.50;9.23;;;;;;;;;;5094648;28;20435;-87
2024/03/19 08:32:40;;;;;;;64.50;10.80;;;;;;;;;;5087798;28;20451;-91
2024/03/19 08:35:09;;;;;;;61.30;9.50;;;;;;;;;;5079534;28;20553;-86
2024/03/19 08:37:36;;;;;;;61.17;8.30;;;;;;;;;;5084487;28;20539;-90
2024/03/19 08:40:05;;;;;;;62.80;9.40;;;;;;;;;;5083394;28;20876;-90
2024/03/19 08:42:40;;;;;;;61.50;8.60;;;;;;;;;;5083221;28;20471;-86
2024/03/19 08:45:11;;;;;;;61.80;8.60;;;;;;;;;;5076818;28;20443;-85
2024/03/19 08:47:38;;;;;;;62.30;8.33;;;;;;;;;;5095824;28;20500;-84
2024/03/19 08:50:07;;;;;;;61.77;9.30;;;;;;;;;;5095897;28;20530;-86
2024/03/19 08:52:34;;;;;;;65.17;9.33;;;;;;;;;;5083957;28;20440;-85
2024/03/19 08:55:02;;;;;;;61.43;8.77;;;;;;;;;;5087993;28;20481;-86
2024/03/19 08:57:29;;;;;;;63.10;9.40;;;;;;;;;;5077892;28;20481;-87
2024/03/19 08:59:59;;;;;;;63.07;8.67;;;;;;;;;;5088371;28;20488;-86
2024/03/19 09:02:27;;;;;;;62.70;8.57;;;;;;;;;;5083930;28;20432;-84
2024/03/19 09:04:54;;;;;;;61.47;8.00;;;;;;;;;;5092648;28;20552;-83
2024/03/19 09:07:22;;;;;;;61.27;8.03;;;;;;;;;;5095769;28;20985;-85
2024/03/19 09:09:51;;;;;;;62.50;8.83;;;;;;;;;;5085885;28;20450;-84
2024/03/19 09:12:18;;;;;;;63.13;7.70;;;;;;;;;;5093450;28;20443;-85
2024/03/19 09:14:45;;;;;;;60.03;7.10;;;;;;;;;;5080479;28;20490;-85
2024/03/19 09:17:14;;;;;;;60.60;7.60;;;;;;;;;;5081633;28;20444;-85
2024/03/19 09:19:41;;;;;;;62.00;9.03;;;;;;;;;;5089077;28;20444;-85
2024/03/19 09:22:09;;;;;;;60.73;7.33;;;;;;;;;;5081881;28;20455;-86
2024/03/19 09:24:36;;;;;;;60.47;7.60;;;;;;;;;;5081617;28;20509;-86
2024/03/19 09:27:06;;;;;;;61.17;7.43;;;;;;;;;;5081325;28;20440;-84
2024/03/19 09:29:33;;;;;;;59.93;7.63;;;;;;;;;;5089940;28;20523;-83
2024/03/19 09:32:02;;;;;;;62.87;8.07;;;;;;;;;;5088213;28;20447;-85
2024/03/19 09:34:31;;;;;;;59.83;7.80;;;;;;;;;;5076294;28;20521;-85
2024/03/19 09:36:58;;;;;;;60.37;6.97;;;;;;;;;;5092952;28;20496;-84
2024/03/19 09:39:25;;;;;;;60.90;7.40;;;;;;;;;;5084457;28;20831;-85
2024/03/19 09:41:59;;;;;;;61.40;7.60;;;;;;;;;;5087364;28;20845;-85
2024/03/19 09:44:26;;;;;;;59.63;7.00;;;;;;;;;;5081361;28;20931;-85
2024/03/19 09:46:53;;;;;;;63.53;7.77;;;;;;;;;;5080885;28;20821;-85
2024/03/19 09:49:22;;;;;;;60.90;7.30;;;;;;;;;;5081767;28;21077;-84
2024/03/19 09:51:51;;;;;;;63.30;7.47;;;;;;;;;;5092805;28;20529;-85
2024/03/19 09:54:18;;;;;;;62.10;7.30;;;;;;;;;;5083869;28;20539;-84
2024/03/19 09:56:47;;;;;;;59.90;7.07;;;;;;;;;;5084677;28;20974;-85
2024/03/19 09:59:15;;;;;;;60.60;7.40;;;;;;;;;;5076261;28;20525;-86
2024/03/19 10:01:43;;;;;;;60.07;6.80;;;;;;;;;;5080478;28;20924;-86
2024/03/19 10:04:14;;;;;;;60.77;7.40;;;;;;;;;;5080832;28;20474;-85
2024/03/19 10:06:41;;;;;;;60.33;7.30;;;;;;;;;;5084631;28;20966;-85
2024/03/19 10:09:10;;;;;;;59.60;5.60;;;;;;;;;;5084078;28;20524;-85
2024/03/19 10:11:37;;;;;;;59.17;6.63;;;;;;;;;;5078934;28;20447;-85
2024/03/19 10:14:04;;;;;;;60.77;6.20;;;;;;;;;;5076809;28;20978;-85
2024/03/19 10:16:32;;;;;;;59.17;6.40;;;;;;;;;;5091721;28;20466;-85
2024/03/19 10:18:59;;;;;;;60.27;5.53;;;;;;;;;;5092446;28;20451;-86
2024/03/19 10:21:26;;;;;;;58.80;5.63;;;;;;;;;;5082269;28;20730;-85
2024/03/19 10:23:54;;;;;;;59.17;5.80;;;;;;;;;;5084605;28;20454;-84
2024/03/19 10:26:24;;;;;;;59.10;5.57;;;;;;;;;;5081066;28;20540;-83
2024/03/19 10:28:52;;;;;;;58.40;5.20;;;;;;;;;;5083977;28;20568;-86
2024/03/19 10:31:20;;;;;;;59.70;5.50;;;;;;;;;;5075207;28;20454;-85
2024/03/19 10:33:47;;;;;;;57.60;5.20;;;;;;;;;;5088486;28;20439;-86
2024/03/19 10:36:19;;;;;;;60.67;4.93;;;;;;;;;;5083930;28;20456;-83
2024/03/19 10:38:46;;;;;;;57.47;4.90;;;;;;;;;;5084734;28;20473;-85
2024/03/19 10:41:13;;;;;;;57.57;4.33;;;;;;;;;;5084556;28;20931;-86
2024/03/19 10:43:43;;;;;;;61.27;5.60;;;;;;;;;;5084844;28;20427;-87
2024/03/19 10:46:12;;;;;;;59.43;5.00;;;;;;;;;;5084458;28;20451;-87
2024/03/19 10:48:39;;;;;;;57.30;4.50;;;;;;;;;;5072130;28;20736;-85
2024/03/19 10:51:09;;;;;;;57.47;3.90;;;;;;;;;;5087594;28;20435;-85
2024/03/19 10:53:37;;;;;;;57.27;4.37;;;;;;;;;;5072673;28;20528;-85
2024/03/19 10:56:08;;;;;;;57.60;4.03;;;;;;;;;;5087393;28;20461;-86
2024/03/19 10:58:37;;;;;;;56.87;3.73;;;;;;;;;;5076504;28;20535;-87
2024/03/19 11:01:06;;;;;;;56.80;3.77;;;;;;;;;;5084846;28;20497;-87
2024/03/19 11:03:33;;;;;;;56.50;3.00;;;;;;;;;;5083590;28;20455;-86
2024/03/19 11:06:04;;;;;;;56.37;3.00;;;;;;;;;;5072675;28;20477;-90
2024/03/19 11:08:30;;;;;;;56.60;3.37;;;;;;;;;;5083003;28;20477;-89
2024/03/19 11:11:05;;;;;;;57.03;3.20;;;;;;;;;;5076792;28;20436;-90
2024/03/19 11:13:35;;;;;;;57.33;3.30;;;;;;;;;;5086392;28;20462;-87
2024/03/19 11:16:13;;;;;;;55.83;2.80;;;;;;;;;;5087314;28;20531;-87
2024/03/19 11:18:45;;;;;;;56.57;3.33;;;;;;;;;;5087628;28;20444;-87
2024/03/19 11:21:18;;;;;;;60.07;3.60;;;;;;;;;;5088092;28;20485;-87
2024/03/19 11:23:46;;;;;;;58.47;3.40;;;;;;;;;;5083957;28;20451;-87
2024/03/19 11:26:14;;;;;;;56.70;3.13;;;;;;;;;;5082850;28;20461;-87
2024/03/19 11:28:41;;;;;;;56.87;4.07;;;;;;;;;;5086912;28;20561;-88
2024/03/19 11:31:12;;;;;;;57.50;4.10;;;;;;;;;;5087301;28;20468;-88
2024/03/19 11:33:40;;;;;;;56.43;3.90;;;;;;;;;;5079618;28;20831;-88
2024/03/19 11:36:09;;;;;;;57.67;3.97;;;;;;;;;;5080640;28;20549;-91
2024/03/19 11:38:37;;;;;;;56.90;3.80;;;;;;;;;;5087286;28;20462;-89
2024/03/19 11:41:04;;;;;;;56.83;3.33;;;;;;;;;;5096731;28;20442;-91
2024/03/19 11:43:37;;;;;;;56.17;3.13;;;;;;;;;;5085978;28;20462;-90
2024/03/19 11:46:04;;;;;;;57.60;2.83;;;;;;;;;;5076461;28;20515;-88
2024/03/19 11:48:31;;;;;;;56.60;3.50;;;;;;;;;;5084909;28;20536;-88
2024/03/19 11:50:58;;;;;;;56.90;3.73;;;;;;;;;;5080919;28;20442;-85
2024/03/19 11:53:28;;;;;;;56.77;3.40;;;;;;;;;;5084193;28;20503;-85
2024/03/19 11:55:56;;;;;;;58.43;3.53;;;;;;;;;;5087518;28;20460;-86
2024/03/19 11:58:24;;;;;;;57.40;3.47;;;;;;;;;;5086605;28;20889;-86
2024/03/19 12:00:51;;;;;;;56.30;3.43;;;;;;;;;;5083521;28;20446;-85
2024/03/19 12:03:19;;;;;;;56.80;3.37;;;;;;;;;;5083531;28;20447;-85
2024/03/19 12:05:47;;;;;;;57.97;3.63;;;;;;;;;;5083058;28;20528;-85
2024/03/19 12:08:14;;;;;;;56.60;3.20;;;;;;;;;;5083263;28;20479;-86
2024/03/19 12:10:43;;;;;;;55.90;3.27;;;;;;;;;;5091555;28;20448;-87
2024/03/19 12:13:11;;;;;;;56.07;3.13;;;;;;;;;;5081547;28;20519;-87
2024/03/19 12:15:39;;;;;;;56.77;2.97;;;;;;;;;;5083560;28;20518;-87
2024/03/19 12:18:07;;;;;;;55.67;2.80;;;;;;;;;;5083147;28;20517;-86
2024/03/19 12:20:35;;;;;;;56.60;2.67;;;;;;;;;;5083669;28;20553;-87
2024/03/19 12:23:02;;;;;;;56.53;3.43;;;;;;;;;;5095045;28;20829;-87
2024/03/19 12:25:31;;;;;;;56.40;3.57;;;;;;;;;;5093266;28;20454;-88
2024/03/19 12:27:59;;;;;;;58.57;3.17;;;;;;;;;;5087753;28;20458;-84
2024/03/19 12:30:27;;;;;;;56.30;2.90;;;;;;;;;;5093194;28;20493;-85
2024/03/19 12:33:10;;;;;;;55.80;2.60;;;;;;;;;;5082472;28;20512;-85
2024/03/19 12:35:39;;;;;;;56.97;3.73;;;;;;;;;;5084983;28;21022;-85
2024/03/19 12:38:11;;;;;;;56.80;3.57;;;;;;;;;;5093961;28;20512;-84
2024/03/19 12:40:38;;;;;;;56.60;3.13;;;;;;;;;;5094102;28;20933;-84
2024/03/19 12:43:07;;;;;;;56.10;2.97;;;;;;;;;;5087787;28;20444;-85
2024/03/19 12:45:35;;;;;;;55.80;2.70;;;;;;;;;;5090994;28;20461;-85
2024/03/19 12:48:02;;;;;;;56.30;2.80;;;;;;;;;;5087726;28;20450;-85
2024/03/19 12:50:29;;;;;;;55.87;3.00;;;;;;;;;;5084794;28;20440;-85
2024/03/19 12:52:56;;;;;;;55.97;2.40;;;;;;;;;;5087116;28;20458;-85
2024/03/19 12:55:24;;;;;;;56.10;2.57;;;;;;;;;;5085230;28;20545;-85
2024/03/19 12:57:51;;;;;;;55.17;2.40;;;;;;;;;;5081981;28;20496;-87
2024/03/19 13:00:22;;;;;;;55.63;2.33;;;;;;;;;;5089829;28;20441;-86
2024/03/19 13:02:52;;;;;;;56.20;2.53;;;;;;;;;;5077711;28;20534;-86
2024/03/19 13:05:20;;;;;;;56.77;2.60;;;;;;;;;;5085728;28;20493;-86
2024/03/19 13:07:48;;;;;;;55.90;2.40;;;;;;;;;;5085029;28;20476;-85
2024/03/19 13:10:20;;;;;;;56.13;2.43;;;;;;;;;;5086309;28;20481;-85
2024/03/19 13:12:48;;;;;;;56.17;2.40;;;;;;;;;;5093988;28;20538;-85
2024/03/19 13:15:15;;;;;;;55.97;2.43;;;;;;;;;;5093842;28;20473;-86
2024/03/19 13:17:44;;;;;;;56.50;2.63;;;;;;;;;;5093957;28;20506;-88
2024/03/19 13:20:12;;;;;;;57.53;2.70;;;;;;;;;;5087422;28;20455;-87
2024/03/19 13:22:39;;;;;;;56.90;2.63;;;;;;;;;;5092950;28;20446;-87
2024/03/19 13:25:08;;;;;;;56.50;2.73;;;;;;;;;;5088841;28;20470;-86
2024/03/19 13:27:35;;;;;;;57.63;2.67;;;;;;;;;;5091278;28;20449;-87
2024/03/19 13:30:03;;;;;;;57.00;2.43;;;;;;;;;;5088376;28;20530;-87
2024/03/19 13:32:31;;;;;;;57.17;2.30;;;;;;;;;;5094492;28;20539;-87
2024/03/19 13:35:00;;;;;;;56.87;2.60;;;;;;;;;;5081002;28;20501;-87
2024/03/19 13:37:27;;;;;;;56.33;2.47;;;;;;;;;;5091118;28;20438;-87
2024/03/19 13:39:54;;;;;;;55.90;2.50;;;;;;;;;;5074704;28;20505;-87
2024/03/19 13:42:25;;;;;;;56.77;2.80;;;;;;;;;;5074275;28;20444;-87
2024/03/19 13:44:52;;;;;;;56.00;2.80;;;;;;;;;;5086822;28;20467;-87
2024/03/19 13:47:19;;;;;;;55.80;2.23;;;;;;;;;;5078774;28;20434;-87
2024/03/19 13:49:46;;;;;;;55.97;2.50;;;;;;;;;;5090944;28;20482;-87
2024/03/19 13:52:19;;;;;;;56.30;2.03;;;;;;;;;;5092343;28;20452;-89
2024/03/19 13:54:46;;;;;;;55.63;2.33;;;;;;;;;;5095976;28;20519;-89
2024/03/19 13:57:14;;;;;;;55.97;2.20;;;;;;;;;;5079635;28;20462;-86
2024/03/19 13:59:41;;;;;;;55.30;2.20;;;;;;;;;;5084904;28;20453;-87
2024/03/19 14:02:09;;;;;;;55.40;2.03;;;;;;;;;;5088395;28;20779;-87
2024/03/19 14:04:36;;;;;;;56.40;2.10;;;;;;;;;;5091867;28;20446;-86
2024/03/19 14:07:04;;;;;;;57.30;2.13;;;;;;;;;;5086219;28;20987;-87
2024/03/19 14:09:33;;;;;;;56.73;2.30;;;;;;;;;;5077265;28;20521;-87
2024/03/19 14:12:00;;;;;;;55.83;2.10;;;;;;;;;;5089892;28;20447;-87
2024/03/19 14:14:30;;;;;;;56.40;2.60;;;;;;;;;;5082387;28;20863;-86
2024/03/19 14:16:57;;;;;;;57.50;3.30;;;;;;;;;;5091343;28;20504;-87
2024/03/19 14:19:25;;;;;;;56.10;2.70;;;;;;;;;;5092569;28;20498;-87
2024/03/19 14:21:54;;;;;;;56.97;2.60;;;;;;;;;;5092714;28;20450;-87
2024/03/19 14:24:21;;;;;;;56.90;2.67;;;;;;;;;;5092461;28;21049;-87
2024/03/19 14:26:50;;;;;;;55.57;2.10;;;;;;;;;;5092481;28;20464;-87
2024/03/19 14:29:17;;;;;;;55.87;2.30;;;;;;;;;;5092545;28;20538;-87